sensor_id;sensor_type;location;lat;lon;timestamp;P1;durP1;ratioP1;P2;durP2;ratioP2
5303;SDS011;2674;49.722;10.892;2023-07-22T00:00:45;8.83;;;6.20;;
5303;SDS011;2674;49.722;10.892;2023-07-22T00:03:11;9.17;;;6.70;;
5303;SDS011;2674;49.722;10.892;2023-07-22T00:05:39;12.00;;;6.33;;
5303;SDS011;2674;49.722;10.892;2023-07-22T00:08:05;8.57;;;7.30;;
5303;SDS011;2674;49.722;10.892;2023-07-22T00:10:31;9.83;;;6.80;;
5303;SDS011;2674;49.722;10.892;2023-07-22T00:12:57;9.17;;;6.87;;
5303;SDS011;2674;49.722;10.892;2023-07-22T00:15:22;17.67;;;7.90;;
5303;SDS011;2674;49.722;10.892;2023-07-22T00:17:50;7.03;;;6.20;;
5303;SDS011;2674;49.722;10.892;2023-07-22T00:20:16;11.97;;;6.70;;
5303;SDS011;2674;49.722;10.892;2023-07-22T00:22:42;8.70;;;7.53;;
5303;SDS011;2674;49.722;10.892;2023-07-22T00:25:11;8.80;;;5.50;;
5303;SDS011;2674;49.722;10.892;2023-07-22T00:27:38;10.27;;;6.90;;
5303;SDS011;2674;49.722;10.892;2023-07-22T00:30:05;8.27;;;6.60;;
5303;SDS011;2674;49.722;10.892;2023-07-22T00:32:32;9.80;;;6.90;;
5303;SDS011;2674;49.722;10.892;2023-07-22T00:34:58;9.03;;;6.40;;
5303;SDS011;2674;49.722;10.892;2023-07-22T00:37:24;11.23;;;6.50;;
5303;SDS011;2674;49.722;10.892;2023-07-22T00:39:50;9.87;;;7.70;;
5303;SDS011;2674;49.722;10.892;2023-07-22T00:42:16;7.87;;;6.00;;
5303;SDS011;2674;49.722;10.892;2023-07-22T00:44:42;8.80;;;6.67;;
5303;SDS011;2674;49.722;10.892;2023-07-22T00:47:08;16.73;;;7.40;;
5303;SDS011;2674;49.722;10.892;2023-07-22T00:49:34;9.40;;;7.80;;
5303;SDS011;2674;49.722;10.892;2023-07-22T00:52:01;10.97;;;7.47;;
5303;SDS011;2674;49.722;10.892;2023-07-22T00:54:28;8.30;;;7.00;;
5303;SDS011;2674;49.722;10.892;2023-07-22T00:56:56;8.83;;;6.63;;
5303;SDS011;2674;49.722;10.892;2023-07-22T00:59:23;13.73;;;6.43;;
5303;SDS011;2674;49.722;10.892;2023-07-22T01:01:52;8.60;;;6.77;;
5303;SDS011;2674;49.722;10.892;2023-07-22T01:04:19;14.90;;;7.40;;
5303;SDS011;2674;49.722;10.892;2023-07-22T01:06:48;9.97;;;7.13;;
5303;SDS011;2674;49.722;10.892;2023-07-22T01:09:15;10.37;;;7.80;;
5303;SDS011;2674;49.722;10.892;2023-07-22T01:11:41;11.53;;;8.03;;
5303;SDS011;2674;49.722;10.892;2023-07-22T01:14:07;9.40;;;7.67;;
5303;SDS011;2674;49.722;10.892;2023-07-22T01:16:34;11.17;;;7.30;;
5303;SDS011;2674;49.722;10.892;2023-07-22T01:19:00;7.20;;;6.10;;
5303;SDS011;2674;49.722;10.892;2023-07-22T01:21:26;9.00;;;7.73;;
5303;SDS011;2674;49.722;10.892;2023-07-22T01:23:52;15.40;;;7.33;;
5303;SDS011;2674;49.722;10.892;2023-07-22T01:26:19;11.10;;;6.60;;
5303;SDS011;2674;49.722;10.892;2023-07-22T01:28:45;7.93;;;7.07;;
5303;SDS011;2674;49.722;10.892;2023-07-22T01:31:10;9.90;;;6.80;;
5303;SDS011;2674;49.722;10.892;2023-07-22T01:33:37;19.37;;;8.00;;
5303;SDS011;2674;49.722;10.892;2023-07-22T01:36:03;8.20;;;6.57;;
5303;SDS011;2674;49.722;10.892;2023-07-22T01:38:29;11.70;;;7.50;;
5303;SDS011;2674;49.722;10.892;2023-07-22T01:40:56;8.53;;;7.03;;
5303;SDS011;2674;49.722;10.892;2023-07-22T01:43:22;10.73;;;6.93;;
5303;SDS011;2674;49.722;10.892;2023-07-22T01:45:48;10.47;;;6.70;;
5303;SDS011;2674;49.722;10.892;2023-07-22T01:48:14;9.20;;;6.80;;
5303;SDS011;2674;49.722;10.892;2023-07-22T01:50:39;7.40;;;6.30;;
5303;SDS011;2674;49.722;10.892;2023-07-22T01:53:05;7.50;;;5.70;;
5303;SDS011;2674;49.722;10.892;2023-07-22T01:55:31;12.00;;;7.10;;
5303;SDS011;2674;49.722;10.892;2023-07-22T01:57:58;10.57;;;6.87;;
5303;SDS011;2674;49.722;10.892;2023-07-22T02:00:24;9.33;;;6.70;;
5303;SDS011;2674;49.722;10.892;2023-07-22T02:02:50;9.43;;;6.70;;
5303;SDS011;2674;49.722;10.892;2023-07-22T02:05:15;7.57;;;6.77;;
5303;SDS011;2674;49.722;10.892;2023-07-22T02:07:41;10.53;;;7.27;;
5303;SDS011;2674;49.722;10.892;2023-07-22T02:10:07;10.10;;;7.77;;
5303;SDS011;2674;49.722;10.892;2023-07-22T02:12:34;7.93;;;6.83;;
5303;SDS011;2674;49.722;10.892;2023-07-22T02:15:01;15.23;;;7.67;;
5303;SDS011;2674;49.722;10.892;2023-07-22T02:17:27;11.50;;;7.03;;
5303;SDS011;2674;49.722;10.892;2023-07-22T02:19:55;8.17;;;6.30;;
5303;SDS011;2674;49.722;10.892;2023-07-22T02:22:21;15.20;;;8.03;;
5303;SDS011;2674;49.722;10.892;2023-07-22T02:24:47;11.00;;;6.37;;
5303;SDS011;2674;49.722;10.892;2023-07-22T02:27:13;8.17;;;6.57;;
5303;SDS011;2674;49.722;10.892;2023-07-22T02:29:39;8.33;;;6.60;;
5303;SDS011;2674;49.722;10.892;2023-07-22T02:32:05;12.23;;;6.87;;
5303;SDS011;2674;49.722;10.892;2023-07-22T02:34:32;9.37;;;7.30;;
5303;SDS011;2674;49.722;10.892;2023-07-22T02:36:57;9.00;;;6.90;;
5303;SDS011;2674;49.722;10.892;2023-07-22T02:39:23;8.60;;;6.10;;
5303;SDS011;2674;49.722;10.892;2023-07-22T02:41:49;8.83;;;6.97;;
5303;SDS011;2674;49.722;10.892;2023-07-22T02:44:15;7.13;;;6.37;;
5303;SDS011;2674;49.722;10.892;2023-07-22T02:46:41;10.07;;;7.87;;
5303;SDS011;2674;49.722;10.892;2023-07-22T02:49:07;7.30;;;6.37;;
5303;SDS011;2674;49.722;10.892;2023-07-22T02:51:32;21.40;;;7.80;;
5303;SDS011;2674;49.722;10.892;2023-07-22T02:53:58;10.47;;;6.77;;
5303;SDS011;2674;49.722;10.892;2023-07-22T02:56:24;7.90;;;6.90;;
5303;SDS011;2674;49.722;10.892;2023-07-22T02:58:50;7.13;;;6.43;;
5303;SDS011;2674;49.722;10.892;2023-07-22T03:01:16;11.20;;;7.67;;
5303;SDS011;2674;49.722;10.892;2023-07-22T03:03:44;8.37;;;7.00;;
5303;SDS011;2674;49.722;10.892;2023-07-22T03:06:09;9.63;;;6.40;;
5303;SDS011;2674;49.722;10.892;2023-07-22T03:08:35;8.20;;;6.97;;
5303;SDS011;2674;49.722;10.892;2023-07-22T03:11:01;10.17;;;7.83;;
5303;SDS011;2674;49.722;10.892;2023-07-22T03:13:28;9.97;;;7.90;;
5303;SDS011;2674;49.722;10.892;2023-07-22T03:15:55;12.67;;;8.27;;
5303;SDS011;2674;49.722;10.892;2023-07-22T03:18:21;8.03;;;7.23;;
5303;SDS011;2674;49.722;10.892;2023-07-22T03:20:48;8.50;;;6.83;;
5303;SDS011;2674;49.722;10.892;2023-07-22T03:23:14;10.03;;;7.30;;
5303;SDS011;2674;49.722;10.892;2023-07-22T03:25:40;10.60;;;7.30;;
5303;SDS011;2674;49.722;10.892;2023-07-22T03:28:08;8.83;;;6.90;;
5303;SDS011;2674;49.722;10.892;2023-07-22T03:30:34;16.77;;;7.80;;
5303;SDS011;2674;49.722;10.892;2023-07-22T03:33:00;10.47;;;7.40;;
5303;SDS011;2674;49.722;10.892;2023-07-22T03:35:26;7.93;;;6.90;;
5303;SDS011;2674;49.722;10.892;2023-07-22T03:37:53;11.40;;;7.50;;
5303;SDS011;2674;49.722;10.892;2023-07-22T03:40:19;11.23;;;7.67;;
5303;SDS011;2674;49.722;10.892;2023-07-22T03:42:51;7.90;;;6.57;;
5303;SDS011;2674;49.722;10.892;2023-07-22T03:45:18;10.50;;;7.30;;
5303;SDS011;2674;49.722;10.892;2023-07-22T03:47:45;9.03;;;7.30;;
5303;SDS011;2674;49.722;10.892;2023-07-22T03:50:15;8.97;;;7.67;;
5303;SDS011;2674;49.722;10.892;2023-07-22T03:52:40;14.90;;;7.60;;
5303;SDS011;2674;49.722;10.892;2023-07-22T03:55:07;18.83;;;7.63;;
5303;SDS011;2674;49.722;10.892;2023-07-22T03:57:33;9.13;;;7.03;;
5303;SDS011;2674;49.722;10.892;2023-07-22T03:59:59;8.77;;;7.43;;
5303;SDS011;2674;49.722;10.892;2023-07-22T04:02:26;12.83;;;7.60;;
5303;SDS011;2674;49.722;10.892;2023-07-22T04:04:53;12.40;;;7.80;;
5303;SDS011;2674;49.722;10.892;2023-07-22T04:07:21;8.90;;;7.00;;
5303;SDS011;2674;49.722;10.892;2023-07-22T04:09:47;8.77;;;7.33;;
5303;SDS011;2674;49.722;10.892;2023-07-22T04:12:14;8.77;;;6.90;;
5303;SDS011;2674;49.722;10.892;2023-07-22T04:14:40;11.93;;;7.63;;
5303;SDS011;2674;49.722;10.892;2023-07-22T04:17:06;9.03;;;7.60;;
5303;SDS011;2674;49.722;10.892;2023-07-22T04:19:32;11.70;;;7.10;;
5303;SDS011;2674;49.722;10.892;2023-07-22T04:21:58;8.80;;;7.10;;
5303;SDS011;2674;49.722;10.892;2023-07-22T04:24:29;12.53;;;7.70;;
5303;SDS011;2674;49.722;10.892;2023-07-22T04:26:57;11.03;;;8.03;;
5303;SDS011;2674;49.722;10.892;2023-07-22T04:29:23;8.50;;;7.27;;
5303;SDS011;2674;49.722;10.892;2023-07-22T04:31:49;11.43;;;7.57;;
5303;SDS011;2674;49.722;10.892;2023-07-22T04:34:15;10.00;;;8.03;;
5303;SDS011;2674;49.722;10.892;2023-07-22T04:36:44;9.03;;;7.10;;
5303;SDS011;2674;49.722;10.892;2023-07-22T04:39:10;14.27;;;7.30;;
5303;SDS011;2674;49.722;10.892;2023-07-22T04:41:37;10.87;;;8.30;;
5303;SDS011;2674;49.722;10.892;2023-07-22T04:44:02;12.60;;;7.50;;
5303;SDS011;2674;49.722;10.892;2023-07-22T04:46:28;11.77;;;7.07;;
5303;SDS011;2674;49.722;10.892;2023-07-22T04:48:55;13.80;;;7.03;;
5303;SDS011;2674;49.722;10.892;2023-07-22T04:51:23;11.63;;;7.90;;
5303;SDS011;2674;49.722;10.892;2023-07-22T04:53:52;12.17;;;7.60;;
5303;SDS011;2674;49.722;10.892;2023-07-22T04:56:17;11.17;;;7.27;;
5303;SDS011;2674;49.722;10.892;2023-07-22T04:58:43;12.63;;;8.23;;
5303;SDS011;2674;49.722;10.892;2023-07-22T05:01:09;13.23;;;7.20;;
5303;SDS011;2674;49.722;10.892;2023-07-22T05:03:35;9.83;;;8.23;;
5303;SDS011;2674;49.722;10.892;2023-07-22T05:06:01;10.17;;;7.10;;
5303;SDS011;2674;49.722;10.892;2023-07-22T05:08:27;8.20;;;7.37;;
5303;SDS011;2674;49.722;10.892;2023-07-22T05:10:52;11.63;;;7.50;;
5303;SDS011;2674;49.722;10.892;2023-07-22T05:13:18;11.80;;;6.23;;
5303;SDS011;2674;49.722;10.892;2023-07-22T05:15:44;8.77;;;6.30;;
5303;SDS011;2674;49.722;10.892;2023-07-22T05:18:10;6.77;;;5.97;;
5303;SDS011;2674;49.722;10.892;2023-07-22T05:20:37;7.77;;;5.20;;
5303;SDS011;2674;49.722;10.892;2023-07-22T05:23:04;10.20;;;6.00;;
5303;SDS011;2674;49.722;10.892;2023-07-22T05:25:30;10.80;;;6.60;;
5303;SDS011;2674;49.722;10.892;2023-07-22T05:27:56;6.93;;;5.97;;
5303;SDS011;2674;49.722;10.892;2023-07-22T05:30:22;6.63;;;5.30;;
5303;SDS011;2674;49.722;10.892;2023-07-22T05:32:47;7.57;;;6.00;;
5303;SDS011;2674;49.722;10.892;2023-07-22T05:35:16;8.07;;;5.67;;
5303;SDS011;2674;49.722;10.892;2023-07-22T05:37:42;9.33;;;6.20;;
5303;SDS011;2674;49.722;10.892;2023-07-22T05:40:08;10.63;;;5.90;;
5303;SDS011;2674;49.722;10.892;2023-07-22T05:42:34;7.10;;;6.40;;
5303;SDS011;2674;49.722;10.892;2023-07-22T05:45:01;8.23;;;6.73;;
5303;SDS011;2674;49.722;10.892;2023-07-22T05:47:28;6.20;;;5.50;;
5303;SDS011;2674;49.722;10.892;2023-07-22T05:49:53;9.67;;;6.43;;
5303;SDS011;2674;49.722;10.892;2023-07-22T05:52:19;7.60;;;6.23;;
5303;SDS011;2674;49.722;10.892;2023-07-22T05:54:45;6.47;;;5.63;;
5303;SDS011;2674;49.722;10.892;2023-07-22T05:57:11;7.10;;;5.37;;
5303;SDS011;2674;49.722;10.892;2023-07-22T05:59:37;9.20;;;6.50;;
5303;SDS011;2674;49.722;10.892;2023-07-22T06:02:03;8.17;;;6.60;;
5303;SDS011;2674;49.722;10.892;2023-07-22T06:04:29;6.03;;;5.43;;
5303;SDS011;2674;49.722;10.892;2023-07-22T06:06:55;9.27;;;6.00;;
5303;SDS011;2674;49.722;10.892;2023-07-22T06:09:21;8.57;;;5.50;;
5303;SDS011;2674;49.722;10.892;2023-07-22T06:11:47;7.13;;;6.43;;
5303;SDS011;2674;49.722;10.892;2023-07-22T06:14:13;6.23;;;5.63;;
5303;SDS011;2674;49.722;10.892;2023-07-22T06:16:39;8.60;;;5.80;;
5303;SDS011;2674;49.722;10.892;2023-07-22T06:19:07;6.87;;;6.03;;
5303;SDS011;2674;49.722;10.892;2023-07-22T06:21:33;6.37;;;5.47;;
5303;SDS011;2674;49.722;10.892;2023-07-22T06:23:59;14.37;;;6.63;;
5303;SDS011;2674;49.722;10.892;2023-07-22T06:26:25;8.53;;;5.50;;
5303;SDS011;2674;49.722;10.892;2023-07-22T06:28:51;8.43;;;6.27;;
5303;SDS011;2674;49.722;10.892;2023-07-22T06:31:16;5.87;;;5.37;;
5303;SDS011;2674;49.722;10.892;2023-07-22T06:33:43;13.20;;;5.90;;
5303;SDS011;2674;49.722;10.892;2023-07-22T06:36:09;7.43;;;6.47;;
5303;SDS011;2674;49.722;10.892;2023-07-22T06:38:34;6.20;;;5.60;;
5303;SDS011;2674;49.722;10.892;2023-07-22T06:41:00;7.50;;;6.10;;
5303;SDS011;2674;49.722;10.892;2023-07-22T06:43:26;7.23;;;5.90;;
5303;SDS011;2674;49.722;10.892;2023-07-22T06:45:52;8.07;;;5.83;;
5303;SDS011;2674;49.722;10.892;2023-07-22T06:48:18;5.33;;;4.83;;
5303;SDS011;2674;49.722;10.892;2023-07-22T06:50:47;8.97;;;5.90;;
5303;SDS011;2674;49.722;10.892;2023-07-22T06:53:14;8.40;;;6.23;;
5303;SDS011;2674;49.722;10.892;2023-07-22T06:55:40;6.57;;;5.83;;
5303;SDS011;2674;49.722;10.892;2023-07-22T06:58:13;6.53;;;5.50;;
5303;SDS011;2674;49.722;10.892;2023-07-22T07:00:39;16.20;;;5.93;;
5303;SDS011;2674;49.722;10.892;2023-07-22T07:03:04;6.80;;;5.13;;
5303;SDS011;2674;49.722;10.892;2023-07-22T07:05:30;8.37;;;5.90;;
5303;SDS011;2674;49.722;10.892;2023-07-22T07:07:56;7.33;;;6.30;;
5303;SDS011;2674;49.722;10.892;2023-07-22T07:10:22;7.37;;;5.63;;
5303;SDS011;2674;49.722;10.892;2023-07-22T07:12:48;13.93;;;6.20;;
5303;SDS011;2674;49.722;10.892;2023-07-22T07:15:13;7.70;;;6.00;;
5303;SDS011;2674;49.722;10.892;2023-07-22T07:17:39;7.10;;;6.10;;
5303;SDS011;2674;49.722;10.892;2023-07-22T07:20:05;8.17;;;6.30;;
5303;SDS011;2674;49.722;10.892;2023-07-22T07:22:31;6.33;;;5.70;;
5303;SDS011;2674;49.722;10.892;2023-07-22T07:24:57;6.63;;;5.93;;
5303;SDS011;2674;49.722;10.892;2023-07-22T07:27:23;6.30;;;5.70;;
5303;SDS011;2674;49.722;10.892;2023-07-22T07:29:49;6.50;;;5.50;;
5303;SDS011;2674;49.722;10.892;2023-07-22T07:32:15;6.50;;;5.80;;
5303;SDS011;2674;49.722;10.892;2023-07-22T07:34:40;11.53;;;5.57;;
5303;SDS011;2674;49.722;10.892;2023-07-22T07:37:06;9.43;;;5.90;;
5303;SDS011;2674;49.722;10.892;2023-07-22T07:39:32;8.10;;;6.40;;
5303;SDS011;2674;49.722;10.892;2023-07-22T07:41:58;9.00;;;5.57;;
5303;SDS011;2674;49.722;10.892;2023-07-22T07:44:24;8.27;;;5.50;;
5303;SDS011;2674;49.722;10.892;2023-07-22T07:46:49;10.80;;;6.67;;
5303;SDS011;2674;49.722;10.892;2023-07-22T07:49:15;6.63;;;5.40;;
5303;SDS011;2674;49.722;10.892;2023-07-22T07:51:41;9.07;;;6.20;;
5303;SDS011;2674;49.722;10.892;2023-07-22T07:54:07;8.43;;;6.20;;
5303;SDS011;2674;49.722;10.892;2023-07-22T07:56:34;6.47;;;5.50;;
5303;SDS011;2674;49.722;10.892;2023-07-22T07:58:59;6.20;;;5.10;;
5303;SDS011;2674;49.722;10.892;2023-07-22T08:01:27;8.27;;;5.67;;
5303;SDS011;2674;49.722;10.892;2023-07-22T08:03:53;7.40;;;5.73;;
5303;SDS011;2674;49.722;10.892;2023-07-22T08:06:19;6.93;;;4.90;;
5303;SDS011;2674;49.722;10.892;2023-07-22T08:08:45;6.43;;;5.00;;
5303;SDS011;2674;49.722;10.892;2023-07-22T08:11:11;11.53;;;5.97;;
5303;SDS011;2674;49.722;10.892;2023-07-22T08:13:39;6.90;;;6.20;;
5303;SDS011;2674;49.722;10.892;2023-07-22T08:16:06;7.73;;;5.17;;
5303;SDS011;2674;49.722;10.892;2023-07-22T08:18:33;6.10;;;5.20;;
5303;SDS011;2674;49.722;10.892;2023-07-22T08:21:00;6.03;;;5.27;;
5303;SDS011;2674;49.722;10.892;2023-07-22T08:23:28;6.40;;;5.73;;
5303;SDS011;2674;49.722;10.892;2023-07-22T08:25:54;7.73;;;6.30;;
5303;SDS011;2674;49.722;10.892;2023-07-22T08:28:20;7.23;;;6.20;;
5303;SDS011;2674;49.722;10.892;2023-07-22T08:30:47;9.13;;;5.63;;
5303;SDS011;2674;49.722;10.892;2023-07-22T08:33:14;7.13;;;5.80;;
5303;SDS011;2674;49.722;10.892;2023-07-22T08:35:41;6.80;;;6.10;;
5303;SDS011;2674;49.722;10.892;2023-07-22T08:38:07;6.70;;;5.83;;
5303;SDS011;2674;49.722;10.892;2023-07-22T08:40:41;7.47;;;6.43;;
5303;SDS011;2674;49.722;10.892;2023-07-22T08:43:08;9.07;;;6.77;;
5303;SDS011;2674;49.722;10.892;2023-07-22T08:45:36;10.40;;;6.53;;
5303;SDS011;2674;49.722;10.892;2023-07-22T08:48:07;16.20;;;6.93;;
5303;SDS011;2674;49.722;10.892;2023-07-22T08:50:57;8.20;;;6.40;;
5303;SDS011;2674;49.722;10.892;2023-07-22T08:53:24;8.73;;;7.70;;
5303;SDS011;2674;49.722;10.892;2023-07-22T08:55:50;13.73;;;6.40;;
5303;SDS011;2674;49.722;10.892;2023-07-22T08:58:17;8.47;;;6.87;;
5303;SDS011;2674;49.722;10.892;2023-07-22T09:00:43;9.67;;;6.20;;
5303;SDS011;2674;49.722;10.892;2023-07-22T09:03:09;11.93;;;6.73;;
5303;SDS011;2674;49.722;10.892;2023-07-22T09:05:36;6.57;;;5.90;;
5303;SDS011;2674;49.722;10.892;2023-07-22T09:08:04;9.63;;;5.60;;
5303;SDS011;2674;49.722;10.892;2023-07-22T09:10:32;14.80;;;6.03;;
5303;SDS011;2674;49.722;10.892;2023-07-22T09:13:02;7.63;;;5.50;;
5303;SDS011;2674;49.722;10.892;2023-07-22T09:15:28;12.33;;;5.07;;
5303;SDS011;2674;49.722;10.892;2023-07-22T09:17:54;5.20;;;4.57;;
5303;SDS011;2674;49.722;10.892;2023-07-22T09:20:20;7.17;;;5.10;;
5303;SDS011;2674;49.722;10.892;2023-07-22T09:22:49;5.30;;;4.80;;
5303;SDS011;2674;49.722;10.892;2023-07-22T09:25:19;5.40;;;4.40;;
5303;SDS011;2674;49.722;10.892;2023-07-22T09:27:51;5.90;;;4.80;;
5303;SDS011;2674;49.722;10.892;2023-07-22T09:30:34;5.33;;;4.83;;
5303;SDS011;2674;49.722;10.892;2023-07-22T09:33:06;8.07;;;5.90;;
5303;SDS011;2674;49.722;10.892;2023-07-22T09:38:12;5.57;;;5.00;;
5303;SDS011;2674;49.722;10.892;2023-07-22T09:40:40;11.33;;;5.13;;
5303;SDS011;2674;49.722;10.892;2023-07-22T09:43:09;7.80;;;4.80;;
5303;SDS011;2674;49.722;10.892;2023-07-22T09:45:39;6.63;;;4.83;;
5303;SDS011;2674;49.722;10.892;2023-07-22T09:48:05;7.73;;;4.40;;
5303;SDS011;2674;49.722;10.892;2023-07-22T09:50:33;10.73;;;4.63;;
5303;SDS011;2674;49.722;10.892;2023-07-22T09:53:01;6.43;;;5.10;;
5303;SDS011;2674;49.722;10.892;2023-07-22T09:55:29;8.57;;;5.63;;
5303;SDS011;2674;49.722;10.892;2023-07-22T09:57:57;7.97;;;4.90;;
5303;SDS011;2674;49.722;10.892;2023-07-22T10:00:28;5.80;;;5.13;;
5303;SDS011;2674;49.722;10.892;2023-07-22T10:02:58;5.10;;;4.43;;
5303;SDS011;2674;49.722;10.892;2023-07-22T10:05:26;9.53;;;4.47;;
5303;SDS011;2674;49.722;10.892;2023-07-22T10:07:54;4.77;;;4.13;;
5303;SDS011;2674;49.722;10.892;2023-07-22T10:12:52;7.30;;;4.03;;
5303;SDS011;2674;49.722;10.892;2023-07-22T10:15:19;4.70;;;4.20;;
5303;SDS011;2674;49.722;10.892;2023-07-22T10:17:45;7.90;;;4.90;;
5303;SDS011;2674;49.722;10.892;2023-07-22T10:20:12;6.30;;;4.60;;
5303;SDS011;2674;49.722;10.892;2023-07-22T10:22:42;4.80;;;4.30;;
5303;SDS011;2674;49.722;10.892;2023-07-22T10:25:14;4.50;;;3.80;;
5303;SDS011;2674;49.722;10.892;2023-07-22T10:27:41;4.90;;;4.40;;
5303;SDS011;2674;49.722;10.892;2023-07-22T10:30:11;4.50;;;4.10;;
5303;SDS011;2674;49.722;10.892;2023-07-22T10:32:39;7.03;;;4.60;;
5303;SDS011;2674;49.722;10.892;2023-07-22T10:35:08;8.83;;;4.23;;
5303;SDS011;2674;49.722;10.892;2023-07-22T10:37:38;8.13;;;4.30;;
5303;SDS011;2674;49.722;10.892;2023-07-22T10:40:26;4.10;;;3.47;;
5303;SDS011;2674;49.722;10.892;2023-07-22T10:42:58;4.33;;;3.93;;
5303;SDS011;2674;49.722;10.892;2023-07-22T10:45:39;5.17;;;4.57;;
5303;SDS011;2674;49.722;10.892;2023-07-22T10:48:07;5.03;;;4.43;;
5303;SDS011;2674;49.722;10.892;2023-07-22T10:50:38;3.90;;;3.50;;
5303;SDS011;2674;49.722;10.892;2023-07-22T10:53:05;5.03;;;3.60;;
5303;SDS011;2674;49.722;10.892;2023-07-22T10:55:31;4.83;;;3.77;;
5303;SDS011;2674;49.722;10.892;2023-07-22T10:57:58;4.60;;;4.10;;
5303;SDS011;2674;49.722;10.892;2023-07-22T11:00:30;4.40;;;3.07;;
5303;SDS011;2674;49.722;10.892;2023-07-22T11:03:09;4.00;;;3.10;;
5303;SDS011;2674;49.722;10.892;2023-07-22T11:05:52;3.93;;;3.33;;
5303;SDS011;2674;49.722;10.892;2023-07-22T11:08:39;6.17;;;4.30;;
5303;SDS011;2674;49.722;10.892;2023-07-22T11:11:06;4.37;;;3.10;;
5303;SDS011;2674;49.722;10.892;2023-07-22T11:13:38;4.20;;;3.23;;
5303;SDS011;2674;49.722;10.892;2023-07-22T11:16:09;4.27;;;2.80;;
5303;SDS011;2674;49.722;10.892;2023-07-22T11:18:37;4.33;;;3.03;;
5303;SDS011;2674;49.722;10.892;2023-07-22T11:21:07;4.30;;;3.30;;
5303;SDS011;2674;49.722;10.892;2023-07-22T11:23:37;3.80;;;3.20;;
5303;SDS011;2674;49.722;10.892;2023-07-22T11:26:03;3.17;;;2.87;;
5303;SDS011;2674;49.722;10.892;2023-07-22T11:28:30;6.73;;;2.90;;
5303;SDS011;2674;49.722;10.892;2023-07-22T11:30:56;4.00;;;3.27;;
5303;SDS011;2674;49.722;10.892;2023-07-22T11:33:24;5.00;;;3.23;;
5303;SDS011;2674;49.722;10.892;2023-07-22T11:35:50;6.80;;;3.27;;
5303;SDS011;2674;49.722;10.892;2023-07-22T11:38:15;3.83;;;3.23;;
5303;SDS011;2674;49.722;10.892;2023-07-22T11:40:41;4.60;;;3.33;;
5303;SDS011;2674;49.722;10.892;2023-07-22T11:43:07;5.20;;;3.07;;
5303;SDS011;2674;49.722;10.892;2023-07-22T11:45:33;3.10;;;2.90;;
5303;SDS011;2674;49.722;10.892;2023-07-22T11:48:08;5.40;;;3.53;;
5303;SDS011;2674;49.722;10.892;2023-07-22T11:50:38;6.43;;;2.87;;
5303;SDS011;2674;49.722;10.892;2023-07-22T11:53:04;6.40;;;3.30;;
5303;SDS011;2674;49.722;10.892;2023-07-22T11:55:30;5.90;;;2.97;;
5303;SDS011;2674;49.722;10.892;2023-07-22T11:57:59;3.77;;;3.47;;
5303;SDS011;2674;49.722;10.892;2023-07-22T12:00:24;5.17;;;3.00;;
5303;SDS011;2674;49.722;10.892;2023-07-22T12:02:50;3.20;;;3.00;;
5303;SDS011;2674;49.722;10.892;2023-07-22T12:05:21;5.00;;;2.87;;
5303;SDS011;2674;49.722;10.892;2023-07-22T12:07:48;3.90;;;3.50;;
5303;SDS011;2674;49.722;10.892;2023-07-22T12:10:15;4.30;;;3.90;;
5303;SDS011;2674;49.722;10.892;2023-07-22T12:12:45;6.73;;;3.53;;
5303;SDS011;2674;49.722;10.892;2023-07-22T12:17:53;5.97;;;3.07;;
5303;SDS011;2674;49.722;10.892;2023-07-22T12:20:28;4.53;;;3.73;;
5303;SDS011;2674;49.722;10.892;2023-07-22T12:22:55;5.90;;;3.80;;
5303;SDS011;2674;49.722;10.892;2023-07-22T12:25:22;8.03;;;3.10;;
5303;SDS011;2674;49.722;10.892;2023-07-22T12:27:48;3.20;;;2.90;;
5303;SDS011;2674;49.722;10.892;2023-07-22T12:30:15;3.70;;;3.37;;
5303;SDS011;2674;49.722;10.892;2023-07-22T12:32:41;3.87;;;3.53;;
5303;SDS011;2674;49.722;10.892;2023-07-22T12:35:07;11.13;;;3.80;;
5303;SDS011;2674;49.722;10.892;2023-07-22T12:37:34;8.53;;;3.80;;
5303;SDS011;2674;49.722;10.892;2023-07-22T12:40:00;5.10;;;3.33;;
5303;SDS011;2674;49.722;10.892;2023-07-22T12:42:28;3.47;;;3.00;;
5303;SDS011;2674;49.722;10.892;2023-07-22T12:44:55;7.50;;;3.83;;
5303;SDS011;2674;49.722;10.892;2023-07-22T12:47:21;9.70;;;3.70;;
5303;SDS011;2674;49.722;10.892;2023-07-22T12:49:47;4.90;;;3.80;;
5303;SDS011;2674;49.722;10.892;2023-07-22T12:52:13;5.00;;;3.80;;
5303;SDS011;2674;49.722;10.892;2023-07-22T12:54:39;4.90;;;3.00;;
5303;SDS011;2674;49.722;10.892;2023-07-22T12:57:04;3.43;;;3.13;;
5303;SDS011;2674;49.722;10.892;2023-07-22T12:59:31;5.80;;;3.47;;
5303;SDS011;2674;49.722;10.892;2023-07-22T13:01:57;4.20;;;3.80;;
5303;SDS011;2674;49.722;10.892;2023-07-22T13:04:25;5.70;;;3.27;;
5303;SDS011;2674;49.722;10.892;2023-07-22T13:06:51;4.87;;;3.37;;
5303;SDS011;2674;49.722;10.892;2023-07-22T13:09:18;10.23;;;3.53;;
5303;SDS011;2674;49.722;10.892;2023-07-22T13:11:45;4.10;;;3.70;;
5303;SDS011;2674;49.722;10.892;2023-07-22T13:14:11;3.90;;;2.80;;
5303;SDS011;2674;49.722;10.892;2023-07-22T13:16:37;4.60;;;2.57;;
5303;SDS011;2674;49.722;10.892;2023-07-22T13:19:03;3.10;;;2.80;;
5303;SDS011;2674;49.722;10.892;2023-07-22T13:21:29;9.37;;;3.17;;
5303;SDS011;2674;49.722;10.892;2023-07-22T13:23:55;8.37;;;3.57;;
5303;SDS011;2674;49.722;10.892;2023-07-22T13:26:21;4.00;;;2.67;;
5303;SDS011;2674;49.722;10.892;2023-07-22T13:28:47;3.43;;;3.03;;
5303;SDS011;2674;49.722;10.892;2023-07-22T13:31:12;3.20;;;3.00;;
5303;SDS011;2674;49.722;10.892;2023-07-22T13:33:38;5.50;;;2.73;;
5303;SDS011;2674;49.722;10.892;2023-07-22T13:36:05;5.27;;;2.67;;
5303;SDS011;2674;49.722;10.892;2023-07-22T13:38:31;5.80;;;3.00;;
5303;SDS011;2674;49.722;10.892;2023-07-22T13:40:57;3.47;;;3.17;;
5303;SDS011;2674;49.722;10.892;2023-07-22T13:43:23;4.30;;;3.20;;
5303;SDS011;2674;49.722;10.892;2023-07-22T13:45:50;3.87;;;2.83;;
5303;SDS011;2674;49.722;10.892;2023-07-22T13:48:16;3.50;;;2.80;;
5303;SDS011;2674;49.722;10.892;2023-07-22T13:50:42;3.90;;;3.00;;
5303;SDS011;2674;49.722;10.892;2023-07-22T13:53:08;8.30;;;3.30;;
5303;SDS011;2674;49.722;10.892;2023-07-22T13:55:34;3.20;;;2.67;;
5303;SDS011;2674;49.722;10.892;2023-07-22T13:57:59;2.87;;;2.67;;
5303;SDS011;2674;49.722;10.892;2023-07-22T14:00:25;4.30;;;2.60;;
5303;SDS011;2674;49.722;10.892;2023-07-22T14:02:51;3.83;;;2.97;;
5303;SDS011;2674;49.722;10.892;2023-07-22T14:05:17;4.33;;;2.37;;
5303;SDS011;2674;49.722;10.892;2023-07-22T14:07:43;4.83;;;3.37;;
5303;SDS011;2674;49.722;10.892;2023-07-22T14:10:09;2.93;;;2.27;;
5303;SDS011;2674;49.722;10.892;2023-07-22T14:12:35;11.20;;;2.60;;
5303;SDS011;2674;49.722;10.892;2023-07-22T14:15:01;4.00;;;2.53;;
5303;SDS011;2674;49.722;10.892;2023-07-22T14:17:29;4.37;;;2.90;;
5303;SDS011;2674;49.722;10.892;2023-07-22T14:19:57;3.00;;;2.70;;
5303;SDS011;2674;49.722;10.892;2023-07-22T14:22:23;5.53;;;2.40;;
5303;SDS011;2674;49.722;10.892;2023-07-22T14:24:49;2.50;;;2.30;;
5303;SDS011;2674;49.722;10.892;2023-07-22T14:27:15;2.87;;;2.63;;
5303;SDS011;2674;49.722;10.892;2023-07-22T14:29:40;4.17;;;2.50;;
5303;SDS011;2674;49.722;10.892;2023-07-22T14:32:06;4.30;;;2.07;;
5303;SDS011;2674;49.722;10.892;2023-07-22T14:34:33;4.00;;;2.70;;
5303;SDS011;2674;49.722;10.892;2023-07-22T14:36:59;3.07;;;2.33;;
5303;SDS011;2674;49.722;10.892;2023-07-22T14:39:25;3.43;;;2.23;;
5303;SDS011;2674;49.722;10.892;2023-07-22T14:41:51;6.40;;;2.30;;
5303;SDS011;2674;49.722;10.892;2023-07-22T14:44:18;6.00;;;2.17;;
5303;SDS011;2674;49.722;10.892;2023-07-22T14:46:44;6.23;;;2.70;;
5303;SDS011;2674;49.722;10.892;2023-07-22T14:49:10;4.63;;;2.23;;
5303;SDS011;2674;49.722;10.892;2023-07-22T14:51:36;4.30;;;2.50;;
5303;SDS011;2674;49.722;10.892;2023-07-22T14:54:02;2.10;;;2.00;;
5303;SDS011;2674;49.722;10.892;2023-07-22T14:56:28;4.37;;;2.40;;
5303;SDS011;2674;49.722;10.892;2023-07-22T14:58:54;2.83;;;2.20;;
5303;SDS011;2674;49.722;10.892;2023-07-22T15:01:21;7.73;;;2.97;;
5303;SDS011;2674;49.722;10.892;2023-07-22T15:03:47;2.40;;;2.20;;